sensor_id;sensor_type;location;lat;lon;timestamp;P1;durP1;ratioP1;P2;durP2;ratioP2
15553;SDS011;7878;44.632;10.942;2023-03-05T00:02:02;21.47;;;13.73;;
15553;SDS011;7878;44.632;10.942;2023-03-05T00:04:28;28.37;;;14.27;;
15553;SDS011;7878;44.632;10.942;2023-03-05T00:06:54;27.20;;;12.30;;
15553;SDS011;7878;44.632;10.942;2023-03-05T00:09:19;18.80;;;13.30;;
15553;SDS011;7878;44.632;10.942;2023-03-05T00:11:45;19.23;;;13.63;;
15553;SDS011;7878;44.632;10.942;2023-03-05T00:14:11;18.33;;;13.67;;
15553;SDS011;7878;44.632;10.942;2023-03-05T00:16:37;19.87;;;12.90;;
15553;SDS011;7878;44.632;10.942;2023-03-05T00:19:03;26.93;;;13.17;;
15553;SDS011;7878;44.632;10.942;2023-03-05T00:21:31;24.60;;;13.50;;
15553;SDS011;7878;44.632;10.942;2023-03-05T00:23:59;18.60;;;11.27;;
15553;SDS011;7878;44.632;10.942;2023-03-05T00:26:28;17.03;;;11.57;;
15553;SDS011;7878;44.632;10.942;2023-03-05T00:28:55;23.40;;;11.80;;
15553;SDS011;7878;44.632;10.942;2023-03-05T00:31:23;16.03;;;12.10;;
15553;SDS011;7878;44.632;10.942;2023-03-05T00:33:54;16.13;;;11.47;;
15553;SDS011;7878;44.632;10.942;2023-03-05T00:36:21;17.20;;;11.90;;
15553;SDS011;7878;44.632;10.942;2023-03-05T00:38:48;17.97;;;12.23;;
15553;SDS011;7878;44.632;10.942;2023-03-05T00:41:14;21.43;;;12.63;;
15553;SDS011;7878;44.632;10.942;2023-03-05T00:43:39;17.23;;;12.50;;
15553;SDS011;7878;44.632;10.942;2023-03-05T00:46:05;18.23;;;11.87;;
15553;SDS011;7878;44.632;10.942;2023-03-05T00:48:31;20.33;;;11.93;;
15553;SDS011;7878;44.632;10.942;2023-03-05T00:50:56;18.27;;;12.13;;
15553;SDS011;7878;44.632;10.942;2023-03-05T00:53:22;21.13;;;11.87;;
15553;SDS011;7878;44.632;10.942;2023-03-05T00:55:48;19.50;;;13.33;;
15553;SDS011;7878;44.632;10.942;2023-03-05T00:58:13;19.20;;;12.80;;
15553;SDS011;7878;44.632;10.942;2023-03-05T01:00:39;21.03;;;12.40;;
15553;SDS011;7878;44.632;10.942;2023-03-05T01:03:05;21.43;;;13.23;;
15553;SDS011;7878;44.632;10.942;2023-03-05T01:05:31;17.17;;;12.03;;
15553;SDS011;7878;44.632;10.942;2023-03-05T01:07:56;21.60;;;12.97;;
15553;SDS011;7878;44.632;10.942;2023-03-05T01:10:23;21.57;;;12.60;;
15553;SDS011;7878;44.632;10.942;2023-03-05T01:12:51;25.63;;;13.30;;
15553;SDS011;7878;44.632;10.942;2023-03-05T01:15:17;23.67;;;13.20;;
15553;SDS011;7878;44.632;10.942;2023-03-05T01:17:43;17.97;;;12.47;;
15553;SDS011;7878;44.632;10.942;2023-03-05T01:20:11;17.97;;;12.73;;
15553;SDS011;7878;44.632;10.942;2023-03-05T01:22:38;18.53;;;12.73;;
15553;SDS011;7878;44.632;10.942;2023-03-05T01:25:05;20.27;;;13.00;;
15553;SDS011;7878;44.632;10.942;2023-03-05T01:27:31;19.13;;;13.13;;
15553;SDS011;7878;44.632;10.942;2023-03-05T01:29:56;18.60;;;12.30;;
15553;SDS011;7878;44.632;10.942;2023-03-05T01:32:22;18.83;;;12.20;;
15553;SDS011;7878;44.632;10.942;2023-03-05T01:34:47;26.10;;;12.40;;
15553;SDS011;7878;44.632;10.942;2023-03-05T01:37:13;17.60;;;12.03;;
15553;SDS011;7878;44.632;10.942;2023-03-05T01:39:39;22.37;;;12.20;;
15553;SDS011;7878;44.632;10.942;2023-03-05T01:42:04;21.60;;;12.83;;
15553;SDS011;7878;44.632;10.942;2023-03-05T01:44:31;18.37;;;12.67;;
15553;SDS011;7878;44.632;10.942;2023-03-05T01:46:57;21.37;;;13.37;;
15553;SDS011;7878;44.632;10.942;2023-03-05T01:49:27;18.87;;;12.70;;
15553;SDS011;7878;44.632;10.942;2023-03-05T01:54:39;22.23;;;12.67;;
15553;SDS011;7878;44.632;10.942;2023-03-05T01:57:20;18.53;;;12.00;;
15553;SDS011;7878;44.632;10.942;2023-03-05T01:59:51;17.03;;;11.87;;
15553;SDS011;7878;44.632;10.942;2023-03-05T02:02:20;16.60;;;11.23;;
15553;SDS011;7878;44.632;10.942;2023-03-05T02:07:59;18.43;;;11.23;;
15553;SDS011;7878;44.632;10.942;2023-03-05T02:10:29;17.47;;;11.87;;
15553;SDS011;7878;44.632;10.942;2023-03-05T02:13:00;17.57;;;11.43;;
15553;SDS011;7878;44.632;10.942;2023-03-05T02:15:29;18.40;;;11.90;;
15553;SDS011;7878;44.632;10.942;2023-03-05T02:17:56;19.83;;;11.40;;
15553;SDS011;7878;44.632;10.942;2023-03-05T02:20:23;26.03;;;11.93;;
15553;SDS011;7878;44.632;10.942;2023-03-05T02:22:50;18.03;;;11.47;;
15553;SDS011;7878;44.632;10.942;2023-03-05T02:25:20;17.03;;;11.30;;
15553;SDS011;7878;44.632;10.942;2023-03-05T02:27:51;17.97;;;10.53;;
15553;SDS011;7878;44.632;10.942;2023-03-05T02:30:35;13.17;;;9.53;;
15553;SDS011;7878;44.632;10.942;2023-03-05T02:33:03;15.87;;;11.60;;
15553;SDS011;7878;44.632;10.942;2023-03-05T02:35:29;19.03;;;11.30;;
15553;SDS011;7878;44.632;10.942;2023-03-05T02:37:55;16.67;;;10.70;;
15553;SDS011;7878;44.632;10.942;2023-03-05T02:40:20;16.00;;;10.70;;
15553;SDS011;7878;44.632;10.942;2023-03-05T02:42:46;15.47;;;10.27;;
15553;SDS011;7878;44.632;10.942;2023-03-05T02:45:13;18.93;;;10.73;;
15553;SDS011;7878;44.632;10.942;2023-03-05T02:47:39;16.43;;;10.37;;
15553;SDS011;7878;44.632;10.942;2023-03-05T02:50:05;14.37;;;10.03;;
15553;SDS011;7878;44.632;10.942;2023-03-05T02:52:32;22.47;;;10.00;;
15553;SDS011;7878;44.632;10.942;2023-03-05T02:54:58;13.77;;;9.73;;
15553;SDS011;7878;44.632;10.942;2023-03-05T02:57:24;14.30;;;9.47;;
15553;SDS011;7878;44.632;10.942;2023-03-05T02:59:50;16.00;;;9.33;;
15553;SDS011;7878;44.632;10.942;2023-03-05T03:02:15;16.00;;;8.80;;
15553;SDS011;7878;44.632;10.942;2023-03-05T03:04:42;13.93;;;8.53;;
15553;SDS011;7878;44.632;10.942;2023-03-05T03:07:09;13.33;;;7.43;;
15553;SDS011;7878;44.632;10.942;2023-03-05T03:09:36;11.57;;;8.17;;
15553;SDS011;7878;44.632;10.942;2023-03-05T03:12:03;12.57;;;7.90;;
15553;SDS011;7878;44.632;10.942;2023-03-05T03:14:30;21.33;;;8.57;;
15553;SDS011;7878;44.632;10.942;2023-03-05T03:17:04;13.93;;;7.60;;
15553;SDS011;7878;44.632;10.942;2023-03-05T03:19:38;10.70;;;7.80;;
15553;SDS011;7878;44.632;10.942;2023-03-05T03:22:04;15.87;;;7.73;;
15553;SDS011;7878;44.632;10.942;2023-03-05T03:24:31;11.87;;;7.23;;
15553;SDS011;7878;44.632;10.942;2023-03-05T03:26:58;8.97;;;6.63;;
15553;SDS011;7878;44.632;10.942;2023-03-05T03:29:24;12.83;;;8.00;;
15553;SDS011;7878;44.632;10.942;2023-03-05T03:31:50;13.33;;;7.53;;
15553;SDS011;7878;44.632;10.942;2023-03-05T03:34:16;10.37;;;7.03;;
15553;SDS011;7878;44.632;10.942;2023-03-05T03:36:42;11.00;;;7.43;;
15553;SDS011;7878;44.632;10.942;2023-03-05T03:39:10;11.83;;;7.57;;
15553;SDS011;7878;44.632;10.942;2023-03-05T03:41:40;14.87;;;8.30;;
15553;SDS011;7878;44.632;10.942;2023-03-05T03:44:07;11.77;;;8.33;;
15553;SDS011;7878;44.632;10.942;2023-03-05T03:46:34;13.77;;;8.13;;
15553;SDS011;7878;44.632;10.942;2023-03-05T03:49:02;14.77;;;7.27;;
15553;SDS011;7878;44.632;10.942;2023-03-05T03:51:28;14.17;;;6.93;;
15553;SDS011;7878;44.632;10.942;2023-03-05T03:53:54;11.67;;;7.93;;
15553;SDS011;7878;44.632;10.942;2023-03-05T03:56:20;9.70;;;6.97;;
15553;SDS011;7878;44.632;10.942;2023-03-05T03:58:48;12.37;;;7.43;;
15553;SDS011;7878;44.632;10.942;2023-03-05T04:01:16;12.47;;;7.50;;
15553;SDS011;7878;44.632;10.942;2023-03-05T04:03:42;10.40;;;7.33;;
15553;SDS011;7878;44.632;10.942;2023-03-05T04:06:08;15.60;;;7.40;;
15553;SDS011;7878;44.632;10.942;2023-03-05T04:08:33;12.83;;;8.33;;
15553;SDS011;7878;44.632;10.942;2023-03-05T04:11:00;12.90;;;7.67;;
15553;SDS011;7878;44.632;10.942;2023-03-05T04:13:26;13.20;;;7.80;;
15553;SDS011;7878;44.632;10.942;2023-03-05T04:15:52;12.57;;;8.07;;
15553;SDS011;7878;44.632;10.942;2023-03-05T04:18:18;15.53;;;7.63;;
15553;SDS011;7878;44.632;10.942;2023-03-05T04:20:43;13.27;;;7.43;;
15553;SDS011;7878;44.632;10.942;2023-03-05T04:23:09;13.30;;;8.17;;
15553;SDS011;7878;44.632;10.942;2023-03-05T04:25:35;15.10;;;8.23;;
15553;SDS011;7878;44.632;10.942;2023-03-05T04:28:00;16.97;;;9.43;;
15553;SDS011;7878;44.632;10.942;2023-03-05T04:30:26;15.33;;;8.87;;
15553;SDS011;7878;44.632;10.942;2023-03-05T04:32:52;13.57;;;8.50;;
15553;SDS011;7878;44.632;10.942;2023-03-05T04:35:17;19.63;;;8.77;;
15553;SDS011;7878;44.632;10.942;2023-03-05T04:37:43;16.37;;;8.33;;
15553;SDS011;7878;44.632;10.942;2023-03-05T04:40:09;11.43;;;8.00;;
15553;SDS011;7878;44.632;10.942;2023-03-05T04:42:36;15.10;;;8.77;;
15553;SDS011;7878;44.632;10.942;2023-03-05T04:45:02;10.10;;;7.80;;
15553;SDS011;7878;44.632;10.942;2023-03-05T04:47:28;15.63;;;7.80;;
15553;SDS011;7878;44.632;10.942;2023-03-05T04:49:54;13.20;;;8.77;;
15553;SDS011;7878;44.632;10.942;2023-03-05T04:52:19;16.17;;;8.97;;
15553;SDS011;7878;44.632;10.942;2023-03-05T04:54:45;13.37;;;8.30;;
15553;SDS011;7878;44.632;10.942;2023-03-05T04:57:11;14.97;;;9.33;;
15553;SDS011;7878;44.632;10.942;2023-03-05T04:59:36;17.33;;;9.17;;
15553;SDS011;7878;44.632;10.942;2023-03-05T05:02:02;15.83;;;8.77;;
15553;SDS011;7878;44.632;10.942;2023-03-05T05:04:28;13.87;;;9.03;;
15553;SDS011;7878;44.632;10.942;2023-03-05T05:06:55;13.93;;;9.30;;
15553;SDS011;7878;44.632;10.942;2023-03-05T05:09:21;14.37;;;9.97;;
15553;SDS011;7878;44.632;10.942;2023-03-05T05:11:47;13.37;;;9.67;;
15553;SDS011;7878;44.632;10.942;2023-03-05T05:14:13;14.23;;;9.87;;
15553;SDS011;7878;44.632;10.942;2023-03-05T05:16:38;18.53;;;10.03;;
15553;SDS011;7878;44.632;10.942;2023-03-05T05:19:04;34.30;;;17.83;;
15553;SDS011;7878;44.632;10.942;2023-03-05T05:21:30;35.17;;;18.93;;
15553;SDS011;7878;44.632;10.942;2023-03-05T05:23:55;28.60;;;14.40;;
15553;SDS011;7878;44.632;10.942;2023-03-05T05:26:21;18.13;;;11.90;;
15553;SDS011;7878;44.632;10.942;2023-03-05T05:28:47;20.70;;;11.67;;
15553;SDS011;7878;44.632;10.942;2023-03-05T05:31:13;21.03;;;13.43;;
15553;SDS011;7878;44.632;10.942;2023-03-05T05:33:40;27.50;;;13.73;;
15553;SDS011;7878;44.632;10.942;2023-03-05T05:36:07;24.80;;;13.80;;
15553;SDS011;7878;44.632;10.942;2023-03-05T05:38:35;21.57;;;13.57;;
15553;SDS011;7878;44.632;10.942;2023-03-05T05:41:11;18.03;;;10.70;;
15553;SDS011;7878;44.632;10.942;2023-03-05T05:43:38;19.83;;;10.50;;
15553;SDS011;7878;44.632;10.942;2023-03-05T05:46:06;20.63;;;12.40;;
15553;SDS011;7878;44.632;10.942;2023-03-05T05:48:33;21.27;;;12.03;;
15553;SDS011;7878;44.632;10.942;2023-03-05T05:51:04;19.43;;;11.47;;
15553;SDS011;7878;44.632;10.942;2023-03-05T05:53:35;17.93;;;12.17;;
15553;SDS011;7878;44.632;10.942;2023-03-05T05:56:02;17.00;;;12.33;;
15553;SDS011;7878;44.632;10.942;2023-03-05T05:58:29;19.47;;;13.43;;
15553;SDS011;7878;44.632;10.942;2023-03-05T06:00:55;22.73;;;14.17;;
15553;SDS011;7878;44.632;10.942;2023-03-05T06:03:21;18.80;;;12.93;;
15553;SDS011;7878;44.632;10.942;2023-03-05T06:05:46;20.80;;;13.70;;
15553;SDS011;7878;44.632;10.942;2023-03-05T06:08:12;25.93;;;13.30;;
15553;SDS011;7878;44.632;10.942;2023-03-05T06:10:37;22.10;;;12.57;;
15553;SDS011;7878;44.632;10.942;2023-03-05T06:13:03;20.73;;;12.67;;
15553;SDS011;7878;44.632;10.942;2023-03-05T06:15:29;23.17;;;11.87;;
15553;SDS011;7878;44.632;10.942;2023-03-05T06:17:55;16.53;;;11.70;;
15553;SDS011;7878;44.632;10.942;2023-03-05T06:20:22;18.20;;;12.13;;
15553;SDS011;7878;44.632;10.942;2023-03-05T06:22:48;17.13;;;11.27;;
15553;SDS011;7878;44.632;10.942;2023-03-05T06:25:13;20.20;;;11.70;;
15553;SDS011;7878;44.632;10.942;2023-03-05T06:27:39;15.63;;;10.97;;
15553;SDS011;7878;44.632;10.942;2023-03-05T06:30:05;16.77;;;10.73;;
15553;SDS011;7878;44.632;10.942;2023-03-05T06:32:31;18.57;;;11.20;;
15553;SDS011;7878;44.632;10.942;2023-03-05T06:34:57;18.53;;;10.80;;
15553;SDS011;7878;44.632;10.942;2023-03-05T06:37:22;18.33;;;11.67;;
15553;SDS011;7878;44.632;10.942;2023-03-05T06:39:48;19.37;;;12.07;;
15553;SDS011;7878;44.632;10.942;2023-03-05T06:42:14;19.83;;;11.17;;
15553;SDS011;7878;44.632;10.942;2023-03-05T06:44:41;19.03;;;11.70;;
15553;SDS011;7878;44.632;10.942;2023-03-05T06:47:07;16.07;;;10.63;;
15553;SDS011;7878;44.632;10.942;2023-03-05T06:49:34;18.63;;;12.07;;
15553;SDS011;7878;44.632;10.942;2023-03-05T06:52:01;22.10;;;12.10;;
15553;SDS011;7878;44.632;10.942;2023-03-05T06:54:27;18.23;;;12.43;;
15553;SDS011;7878;44.632;10.942;2023-03-05T06:56:52;19.73;;;11.67;;
15553;SDS011;7878;44.632;10.942;2023-03-05T06:59:18;20.60;;;10.77;;
15553;SDS011;7878;44.632;10.942;2023-03-05T07:01:45;24.13;;;11.80;;
15553;SDS011;7878;44.632;10.942;2023-03-05T07:04:11;18.00;;;10.33;;
15553;SDS011;7878;44.632;10.942;2023-03-05T07:06:38;17.67;;;9.30;;
15553;SDS011;7878;44.632;10.942;2023-03-05T07:09:06;19.40;;;10.30;;
15553;SDS011;7878;44.632;10.942;2023-03-05T07:11:33;14.47;;;8.10;;
15553;SDS011;7878;44.632;10.942;2023-03-05T07:13:59;10.70;;;7.33;;
15553;SDS011;7878;44.632;10.942;2023-03-05T07:16:25;12.80;;;7.00;;
15553;SDS011;7878;44.632;10.942;2023-03-05T07:18:53;15.03;;;6.80;;
15553;SDS011;7878;44.632;10.942;2023-03-05T07:21:22;9.67;;;5.77;;
15553;SDS011;7878;44.632;10.942;2023-03-05T07:23:49;12.87;;;5.97;;
15553;SDS011;7878;44.632;10.942;2023-03-05T07:26:17;13.50;;;6.77;;
15553;SDS011;7878;44.632;10.942;2023-03-05T07:28:43;8.97;;;5.53;;
15553;SDS011;7878;44.632;10.942;2023-03-05T07:31:13;10.97;;;5.80;;
15553;SDS011;7878;44.632;10.942;2023-03-05T07:33:43;9.20;;;5.83;;
15553;SDS011;7878;44.632;10.942;2023-03-05T07:36:12;12.57;;;6.23;;
15553;SDS011;7878;44.632;10.942;2023-03-05T07:38:38;7.93;;;5.00;;
15553;SDS011;7878;44.632;10.942;2023-03-05T07:41:05;12.17;;;5.47;;
15553;SDS011;7878;44.632;10.942;2023-03-05T07:43:32;9.43;;;5.10;;
15553;SDS011;7878;44.632;10.942;2023-03-05T07:45:58;10.53;;;5.10;;
15553;SDS011;7878;44.632;10.942;2023-03-05T07:48:24;7.67;;;5.30;;
15553;SDS011;7878;44.632;10.942;2023-03-05T07:50:50;6.80;;;4.53;;
15553;SDS011;7878;44.632;10.942;2023-03-05T07:53:28;7.10;;;4.77;;
15553;SDS011;7878;44.632;10.942;2023-03-05T07:55:54;11.47;;;5.20;;
15553;SDS011;7878;44.632;10.942;2023-03-05T07:58:20;11.50;;;4.90;;
15553;SDS011;7878;44.632;10.942;2023-03-05T08:00:45;8.30;;;4.87;;
15553;SDS011;7878;44.632;10.942;2023-03-05T08:03:11;14.47;;;5.87;;
15553;SDS011;7878;44.632;10.942;2023-03-05T08:05:40;8.90;;;4.87;;
15553;SDS011;7878;44.632;10.942;2023-03-05T08:08:06;12.67;;;5.50;;
15553;SDS011;7878;44.632;10.942;2023-03-05T08:10:33;8.53;;;5.10;;
15553;SDS011;7878;44.632;10.942;2023-03-05T08:12:59;9.37;;;5.10;;
15553;SDS011;7878;44.632;10.942;2023-03-05T08:15:25;19.80;;;6.73;;
15553;SDS011;7878;44.632;10.942;2023-03-05T08:17:51;7.70;;;5.07;;
15553;SDS011;7878;44.632;10.942;2023-03-05T08:20:16;15.60;;;5.27;;
15553;SDS011;7878;44.632;10.942;2023-03-05T08:22:43;13.53;;;5.47;;
15553;SDS011;7878;44.632;10.942;2023-03-05T08:25:09;9.33;;;6.30;;
15553;SDS011;7878;44.632;10.942;2023-03-05T08:27:42;10.60;;;5.60;;
15553;SDS011;7878;44.632;10.942;2023-03-05T08:30:17;9.10;;;5.70;;
15553;SDS011;7878;44.632;10.942;2023-03-05T08:32:43;11.53;;;5.83;;
15553;SDS011;7878;44.632;10.942;2023-03-05T08:35:09;9.67;;;5.27;;
15553;SDS011;7878;44.632;10.942;2023-03-05T08:37:35;12.73;;;5.43;;
15553;SDS011;7878;44.632;10.942;2023-03-05T08:40:02;12.53;;;5.50;;
15553;SDS011;7878;44.632;10.942;2023-03-05T08:42:29;37.23;;;32.60;;
15553;SDS011;7878;44.632;10.942;2023-03-05T08:44:54;13.20;;;6.80;;
15553;SDS011;7878;44.632;10.942;2023-03-05T08:47:20;11.97;;;5.67;;
15553;SDS011;7878;44.632;10.942;2023-03-05T08:49:49;11.40;;;6.30;;
15553;SDS011;7878;44.632;10.942;2023-03-05T08:52:19;7.77;;;5.87;;
15553;SDS011;7878;44.632;10.942;2023-03-05T08:54:48;9.20;;;6.03;;
15553;SDS011;7878;44.632;10.942;2023-03-05T08:57:14;10.57;;;6.00;;
15553;SDS011;7878;44.632;10.942;2023-03-05T08:59:39;11.63;;;7.03;;
15553;SDS011;7878;44.632;10.942;2023-03-05T09:02:05;9.73;;;5.90;;
15553;SDS011;7878;44.632;10.942;2023-03-05T09:04:31;10.93;;;6.75;;
15553;SDS011;7878;44.632;10.942;2023-03-05T09:06:57;9.73;;;6.32;;
15553;SDS011;7878;44.632;10.942;2023-03-05T09:09:22;11.60;;;6.65;;
15553;SDS011;7878;44.632;10.942;2023-03-05T09:11:48;16.83;;;6.65;;
15553;SDS011;7878;44.632;10.942;2023-03-05T09:14:16;10.18;;;6.28;;
15553;SDS011;7878;44.632;10.942;2023-03-05T09:16:41;9.50;;;6.65;;
15553;SDS011;7878;44.632;10.942;2023-03-05T09:19:07;13.88;;;7.03;;
15553;SDS011;7878;44.632;10.942;2023-03-05T09:21:34;10.38;;;6.43;;
15553;SDS011;7878;44.632;10.942;2023-03-05T09:24:00;10.20;;;6.40;;
15553;SDS011;7878;44.632;10.942;2023-03-05T09:26:26;10.45;;;6.30;;
15553;SDS011;7878;44.632;10.942;2023-03-05T09:28:52;9.52;;;6.45;;
15553;SDS011;7878;44.632;10.942;2023-03-05T09:31:18;12.05;;;6.78;;
15553;SDS011;7878;44.632;10.942;2023-03-05T09:33:43;7.95;;;6.40;;
15553;SDS011;7878;44.632;10.942;2023-03-05T09:36:21;9.73;;;6.47;;
15553;SDS011;7878;44.632;10.942;2023-03-05T09:38:48;10.20;;;6.35;;
15553;SDS011;7878;44.632;10.942;2023-03-05T09:41:28;10.57;;;6.47;;
15553;SDS011;7878;44.632;10.942;2023-03-05T09:47:08;8.98;;;6.10;;
15553;SDS011;7878;44.632;10.942;2023-03-05T09:55:53;8.25;;;6.28;;
15553;SDS011;7878;44.632;10.942;2023-03-05T10:11:52;12.43;;;6.95;;
15553;SDS011;7878;44.632;10.942;2023-03-05T10:14:38;8.40;;;6.25;;
15553;SDS011;7878;44.632;10.942;2023-03-05T10:28:36;11.90;;;7.70;;
15553;SDS011;7878;44.632;10.942;2023-03-05T10:33:40;14.77;;;8.02;;
15553;SDS011;7878;44.632;10.942;2023-03-05T10:42:22;11.90;;;8.00;;
15553;SDS011;7878;44.632;10.942;2023-03-05T10:44:58;12.13;;;8.15;;
15553;SDS011;7878;44.632;10.942;2023-03-05T10:50:09;15.48;;;8.77;;
15553;SDS011;7878;44.632;10.942;2023-03-05T10:52:41;12.70;;;9.00;;
15553;SDS011;7878;44.632;10.942;2023-03-05T10:55:20;14.27;;;8.85;;
15553;SDS011;7878;44.632;10.942;2023-03-05T10:57:46;11.32;;;9.70;;
15553;SDS011;7878;44.632;10.942;2023-03-05T11:00:22;14.23;;;8.57;;
15553;SDS011;7878;44.632;10.942;2023-03-05T11:08:21;12.27;;;9.48;;
15553;SDS011;7878;44.632;10.942;2023-03-05T11:13:27;15.50;;;10.55;;
15553;SDS011;7878;44.632;10.942;2023-03-05T11:16:04;25.70;;;10.35;;
15553;SDS011;7878;44.632;10.942;2023-03-05T11:18:31;14.77;;;9.40;;
15553;SDS011;7878;44.632;10.942;2023-03-05T11:21:08;11.48;;;10.25;;
15553;SDS011;7878;44.632;10.942;2023-03-05T11:23:37;11.88;;;9.77;;
15553;SDS011;7878;44.632;10.942;2023-03-05T11:28:38;13.52;;;9.60;;
15553;SDS011;7878;44.632;10.942;2023-03-05T11:33:58;12.65;;;9.40;;
15553;SDS011;7878;44.632;10.942;2023-03-05T11:41:42;12.18;;;10.40;;
15553;SDS011;7878;44.632;10.942;2023-03-05T11:44:19;14.77;;;10.48;;
15553;SDS011;7878;44.632;10.942;2023-03-05T11:46:47;16.13;;;10.85;;
15553;SDS011;7878;44.632;10.942;2023-03-05T11:49:38;12.20;;;10.75;;
15553;SDS011;7878;44.632;10.942;2023-03-05T11:52:11;14.05;;;11.25;;
15553;SDS011;7878;44.632;10.942;2023-03-05T11:57:20;13.93;;;11.05;;
15553;SDS011;7878;44.632;10.942;2023-03-05T11:59:48;15.02;;;11.27;;
15553;SDS011;7878;44.632;10.942;2023-03-05T12:02:17;13.95;;;10.70;;
15553;SDS011;7878;44.632;10.942;2023-03-05T12:04:45;13.73;;;10.73;;
15553;SDS011;7878;44.632;10.942;2023-03-05T12:07:13;16.20;;;10.93;;
15553;SDS011;7878;44.632;10.942;2023-03-05T12:15:45;16.27;;;11.65;;
15553;SDS011;7878;44.632;10.942;2023-03-05T12:20:59;13.57;;;10.75;;
15553;SDS011;7878;44.632;10.942;2023-03-05T12:23:48;13.82;;;10.20;;
15553;SDS011;7878;44.632;10.942;2023-03-05T12:26:16;12.13;;;9.70;;
15553;SDS011;7878;44.632;10.942;2023-03-05T12:34:33;13.20;;;9.18;;
15553;SDS011;7878;44.632;10.942;2023-03-05T12:39:59;13.45;;;9.88;;
15553;SDS011;7878;44.632;10.942;2023-03-05T12:47:36;13.95;;;8.85;;
15553;SDS011;7878;44.632;10.942;2023-03-05T13:03:17;10.38;;;8.00;;
15553;SDS011;7878;44.632;10.942;2023-03-05T13:05:55;13.60;;;8.40;;
15553;SDS011;7878;44.632;10.942;2023-03-05T13:08:23;16.08;;;8.80;;
15553;SDS011;7878;44.632;10.942;2023-03-05T13:10:53;12.20;;;8.68;;
15553;SDS011;7878;44.632;10.942;2023-03-05T13:13:21;17.70;;;8.85;;
15553;SDS011;7878;44.632;10.942;2023-03-05T13:15:50;12.57;;;8.15;;
15553;SDS011;7878;44.632;10.942;2023-03-05T13:18:24;14.10;;;8.13;;
15553;SDS011;7878;44.632;10.942;2023-03-05T13:21:05;13.73;;;8.75;;
15553;SDS011;7878;44.632;10.942;2023-03-05T13:23:32;18.63;;;8.27;;
15553;SDS011;7878;44.632;10.942;2023-03-05T13:26:18;10.98;;;7.55;;
15553;SDS011;7878;44.632;10.942;2023-03-05T13:29:01;14.85;;;8.10;;
15553;SDS011;7878;44.632;10.942;2023-03-05T13:31:42;16.05;;;8.63;;
15553;SDS011;7878;44.632;10.942;2023-03-05T13:39:28;13.10;;;8.88;;
15553;SDS011;7878;44.632;10.942;2023-03-05T13:41:58;16.35;;;8.65;;
15553;SDS011;7878;44.632;10.942;2023-03-05T13:44:26;11.82;;;8.02;;
15553;SDS011;7878;44.632;10.942;2023-03-05T13:46:53;18.70;;;8.52;;
15553;SDS011;7878;44.632;10.942;2023-03-05T13:49:31;14.07;;;8.95;;
15553;SDS011;7878;44.632;10.942;2023-03-05T13:51:57;15.75;;;9.38;;
15553;SDS011;7878;44.632;10.942;2023-03-05T13:54:24;17.95;;;8.40;;
15553;SDS011;7878;44.632;10.942;2023-03-05T13:56:53;15.10;;;8.70;;
15553;SDS011;7878;44.632;10.942;2023-03-05T13:59:21;15.32;;;8.30;;
15553;SDS011;7878;44.632;10.942;2023-03-05T14:01:48;15.20;;;9.00;;
15553;SDS011;7878;44.632;10.942;2023-03-05T14:09:42;15.05;;;9.10;;
15553;SDS011;7878;44.632;10.942;2023-03-05T14:14:58;14.27;;;9.02;;
15553;SDS011;7878;44.632;10.942;2023-03-05T14:22:43;18.92;;;8.52;;
15553;SDS011;7878;44.632;10.942;2023-03-05T14:25:30;17.33;;;8.65;;
15553;SDS011;7878;44.632;10.942;2023-03-05T14:30:44;13.43;;;8.25;;
15553;SDS011;7878;44.632;10.942;2023-03-05T14:33:14;15.43;;;8.40;;
15553;SDS011;7878;44.632;10.942;2023-03-05T14:35:47;14.50;;;7.97;;
15553;SDS011;7878;44.632;10.942;2023-03-05T14:38:17;13.30;;;7.82;;
15553;SDS011;7878;44.632;10.942;2023-03-05T14:40:47;14.10;;;8.13;;
15553;SDS011;7878;44.632;10.942;2023-03-05T14:43:13;13.05;;;8.27;;
15553;SDS011;7878;44.632;10.942;2023-03-05T14:45:39;16.23;;;8.32;;
15553;SDS011;7878;44.632;10.942;2023-03-05T14:48:08;13.30;;;8.48;;
15553;SDS011;7878;44.632;10.942;2023-03-05T14:53:06;11.20;;;7.88;;
15553;SDS011;7878;44.632;10.942;2023-03-05T14:55:36;13.32;;;8.07;;
15553;SDS011;7878;44.632;10.942;2023-03-05T14:58:10;13.05;;;8.07;;
15553;SDS011;7878;44.632;10.942;2023-03-05T15:00:49;12.90;;;7.35;;
15553;SDS011;7878;44.632;10.942;2023-03-05T15:03:15;10.40;;;7.65;;
15553;SDS011;7878;44.632;10.942;2023-03-05T15:05:41;10.95;;;7.55;;
15553;SDS011;7878;44.632;10.942;2023-03-05T15:08:12;13.43;;;7.40;;
15553;SDS011;7878;44.632;10.942;2023-03-05T15:10:40;17.48;;;7.85;;
15553;SDS011;7878;44.632;10.942;2023-03-05T15:13:05;13.80;;;7.78;;
15553;SDS011;7878;44.632;10.942;2023-03-05T15:15:31;15.15;;;8.35;;
15553;SDS011;7878;44.632;10.942;2023-03-05T15:17:57;16.05;;;7.90;;
15553;SDS011;7878;44.632;10.942;2023-03-05T15:20:23;11.85;;;7.93;;
15553;SDS011;7878;44.632;10.942;2023-03-05T15:22:51;11.73;;;8.07;;
15553;SDS011;7878;44.632;10.942;2023-03-05T15:25:18;12.63;;;8.32;;
15553;SDS011;7878;44.632;10.942;2023-03-05T15:27:44;11.75;;;7.35;;
15553;SDS011;7878;44.632;10.942;2023-03-05T15:30:13;15.48;;;7.53;;
15553;SDS011;7878;44.632;10.942;2023-03-05T15:32:47;14.88;;;8.32;;
15553;SDS011;7878;44.632;10.942;2023-03-05T15:35:13;14.70;;;7.53;;
15553;SDS011;7878;44.632;10.942;2023-03-05T15:37:38;15.48;;;7.88;;
15553;SDS011;7878;44.632;10.942;2023-03-05T15:40:04;13.90;;;7.22;;
15553;SDS011;7878;44.632;10.942;2023-03-05T15:42:30;16.60;;;7.57;;
15553;SDS011;7878;44.632;10.942;2023-03-05T15:44:56;12.65;;;7.25;;
15553;SDS011;7878;44.632;10.942;2023-03-05T15:47:22;12.23;;;7.72;;
15553;SDS011;7878;44.632;10.942;2023-03-05T15:49:47;12.40;;;7.15;;
15553;SDS011;7878;44.632;10.942;2023-03-05T15:52:13;11.00;;;7.20;;
15553;SDS011;7878;44.632;10.942;2023-03-05T15:54:39;11.50;;;7.20;;
15553;SDS011;7878;44.632;10.942;2023-03-05T15:57:07;16.58;;;7.47;;
15553;SDS011;7878;44.632;10.942;2023-03-05T15:59:34;11.00;;;6.72;;
15553;SDS011;7878;44.632;10.942;2023-03-05T16:02:00;11.63;;;6.65;;
15553;SDS011;7878;44.632;10.942;2023-03-05T16:04:26;13.40;;;7.50;;
15553;SDS011;7878;44.632;10.942;2023-03-05T16:06:53;12.02;;;7.30;;
15553;SDS011;7878;44.632;10.942;2023-03-05T16:09:23;10.48;;;6.53;;
15553;SDS011;7878;44.632;10.942;2023-03-05T16:11:53;14.13;;;7.20;;
15553;SDS011;7878;44.632;10.942;2023-03-05T16:14:23;10.43;;;6.97;;
15553;SDS011;7878;44.632;10.942;2023-03-05T16:16:51;8.68;;;6.38;;
15553;SDS011;7878;44.632;10.942;2023-03-05T16:19:19;10.50;;;6.90;;
15553;SDS011;7878;44.632;10.942;2023-03-05T16:21:46;14.15;;;7.18;;
15553;SDS011;7878;44.632;10.942;2023-03-05T16:24:12;12.07;;;6.78;;
15553;SDS011;7878;44.632;10.942;2023-03-05T16:26:38;12.13;;;6.88;;
15553;SDS011;7878;44.632;10.942;2023-03-05T16:29:04;13.23;;;7.07;;
15553;SDS011;7878;44.632;10.942;2023-03-05T16:31:31;10.48;;;6.30;;
15553;SDS011;7878;44.632;10.942;2023-03-05T16:34:02;14.80;;;6.47;;
15553;SDS011;7878;44.632;10.942;2023-03-05T16:36:28;9.40;;;6.18;;
15553;SDS011;7878;44.632;10.942;2023-03-05T16:38:56;9.27;;;5.88;;
15553;SDS011;7878;44.632;10.942;2023-03-05T16:41:24;12.15;;;6.95;;
15553;SDS011;7878;44.632;10.942;2023-03-05T16:43:51;21.35;;;6.88;;
15553;SDS011;7878;44.632;10.942;2023-03-05T16:46:20;13.60;;;6.13;;
15553;SDS011;7878;44.632;10.942;2023-03-05T16:48:46;11.88;;;6.60;;